Flight Track Log - Related Links

Times and Time Zones

All times are in EDT time to prevent confusion due to time zone crossing. See the SWA1728 flight status page for this flight to view local times or setup timezone preferences in your user account.

Time Position Orientation Groundspeed Altitude Reporting Facility
EDT Latitude Longitude Course Direction KTS MPH feet Rate Location/Type
Thu 06:50:22 PM 39.8833 -104.5333 90° East 249 287 8,300  Level Denver TRACON
Thu 06:51:12 PM 39.8742 -104.4475 98° East 262 302 10,400 2,357 Climbing Denver Center
Thu 06:52:14 PM 39.8733 -104.3314 90° East 314 361 12,700 2,371 Climbing Denver Center
Thu 06:53:16 PM 39.8736 -104.1947 90° East 350 403 15,300 2,565 Climbing Denver Center
Thu 06:54:18 PM 39.8728 -104.0647 90° East 362 417 18,000 2,323 Climbing Denver Center
Thu 06:55:00 PM 39.8667 -103.8039 90° East  Level FlightAware Approximate
Thu 06:55:20 PM 39.8706 -103.9222 91° East 368 423 20,100  Level Denver Center
Thu 06:56:22 PM 39.8786 -103.7908 85° East 366 421 21,800 1,645 Climbing Denver Center
Thu 06:57:24 PM 39.8922 -103.6583 82° East 371 427 23,500 1,610 Climbing Denver Center
Thu 06:58:25 PM 39.9061 -103.5408 81° East 386 444 25,100 1,561 Climbing Denver Center
Thu 06:59:27 PM 39.9250 -103.3725 82° East 399 459 26,700 1,597 Climbing Denver Center
Thu 07:00:29 PM 39.9444 -103.1989 82° East 410 472 28,400 1,324 Climbing Denver Center
Thu 07:01:43 PM 39.9614 -103.0458 82° East 421 484 29,700 1,226 Climbing Denver Center
Thu 07:02:46 PM 39.9806 -102.8692 82° East 420 483 31,200 1,296 Climbing Denver Center
Thu 07:03:48 PM 39.9978 -102.7142 82° East 427 491 32,400 1,113 Climbing Denver Center
Thu 07:04:50 PM 40.0150 -102.5422 82° East 428 493 33,500 1,113 Climbing Denver Center
Thu 07:05:52 PM 40.0306 -102.3942 82° East 433 498 34,700 726 Climbing Denver Center
Thu 07:06:54 PM 40.0486 -102.2225 82° East 430 495 35,000 145 Climbing Denver Center
Thu 07:07:56 PM 40.0636 -102.0750 82° East 431 496 35,000  Level Denver Center
Thu 07:08:58 PM 40.0814 -101.8986 82° East 440 506 35,000  Level Denver Center
Thu 07:10:00 PM 40.0958 -101.7475 83° East 439 505 35,000  Level Denver Center
Thu 07:11:02 PM 40.1144 -101.5714 82° East 442 509 35,000  Level Denver Center
Thu 07:12:04 PM 40.1281 -101.4181 83° East 444 511 35,000  Level Denver Center
Thu 07:13:06 PM 40.1422 -101.2672 83° East 441 507 35,000  Level Denver Center
Thu 07:14:08 PM 40.1589 -101.0903 83° East 442 509 35,000  Level Denver Center
Thu 07:15:10 PM 40.1725 -100.9406 83° East 438 504 35,000  Level Denver Center
Thu 07:16:12 PM 40.1886 -100.7639 83° East 439 505 35,000  Level Denver Center
Thu 07:17:14 PM 40.2028 -100.6111 83° East 443 510 35,000  Level Denver Center
Thu 07:18:16 PM 40.2183 -100.4342 83° East 442 509 35,000  Level Denver Center
Thu 07:19:18 PM 40.2317 -100.2803 83° East 447 514 35,000  Level Denver Center
Thu 07:20:20 PM 40.2464 -100.1019 84° East 446 513 35,000  Level Denver Center
Thu 07:21:22 PM 40.2567 -99.9747 84° East 445 512 35,000  Level Denver Center
Thu 07:22:24 PM 40.2736 -99.7711 84° East 451 519 35,000  Level Denver Center
Thu 07:23:26 PM 40.2872 -99.6083 84° East 452 520 35,000  Level Denver Center
Thu 07:24:28 PM 40.2994 -99.4461 84° East 449 517 35,000  Level Denver Center
Thu 07:25:30 PM 40.3144 -99.2508 84° East 450 518 35,000  Level Denver Center
Thu 07:26:32 PM 40.3275 -99.0864 84° East 453 521 35,000  Level Denver Center
Thu 07:27:34 PM 40.3400 -98.9231 84° East 452 520 35,000  Level Denver Center
Thu 07:28:30 PM 40.3497 -98.7936 84° East 453 521 35,000  Level Minneapolis Center
Thu 07:29:32 PM 40.3722 -98.5969 81° East 456 525 35,000  Level Minneapolis Center
Thu 07:30:34 PM 40.3942 -98.4311 80° East 461 531 35,000  Level Minneapolis Center
Thu 07:31:35 PM 40.4150 -98.2631 81° East 467 537 35,000  Level Minneapolis Center
Thu 07:32:37 PM 40.4353 -98.0936 81° East 471 542 35,000  Level Minneapolis Center
Thu 07:33:39 PM 40.4564 -97.9228 81° East 474 545 35,000  Level Minneapolis Center
Thu 07:34:41 PM 40.4764 -97.7519 81° East 475 547 35,000  Level Minneapolis Center
Thu 07:35:43 PM 40.5025 -97.5481 80° East 474 545 35,000  Level Minneapolis Center
Thu 07:36:44 PM 40.5203 -97.3819 82° East 464 534 35,000  Level Minneapolis Center
Thu 07:37:46 PM 40.5389 -97.2214 81° East 456 525 35,000  Level Minneapolis Center
Thu 07:38:48 PM 40.5589 -97.0561 81° East 458 527 35,000  Level Minneapolis Center
Thu 07:39:50 PM 40.5769 -96.8883 82° East 462 532 35,000  Level Minneapolis Center
Thu 07:40:52 PM 40.5961 -96.7203 81° East 465 535 35,000  Level Minneapolis Center
Thu 07:41:53 PM 40.6186 -96.5164 82° East 470 541 35,000  Level Minneapolis Center
Thu 07:42:55 PM 40.6375 -96.3489 81° East 468 539 35,000  Level Minneapolis Center
Thu 07:43:57 PM 40.6542 -96.1814 82° East 466 536 35,000  Level Minneapolis Center
Thu 07:44:59 PM 40.6125 -96.0422 111° Southeast 420 483 35,000  Level Minneapolis Center
Thu 07:46:00 PM 40.5417 -95.9314 130° Southeast 401 461 35,000  Level Minneapolis Center
Thu 07:47:02 PM 40.4722 -95.8211 130° Southeast 396 456 35,000  Level Minneapolis Center
Thu 07:48:04 PM 40.4047 -95.7103 129° Southeast 392 451 35,000  Level Minneapolis Center
Thu 07:49:05 PM 40.3236 -95.5758 128° Southeast 392 451 35,000  Level Minneapolis Center
Thu 07:50:07 PM 40.2564 -95.4628 128° Southeast 395 455 35,000  Level Minneapolis Center
Thu 07:51:09 PM 40.1872 -95.3519 129° Southeast 394 453 35,000  Level Minneapolis Center
Thu 07:52:10 PM 40.1200 -95.2400 128° Southeast 394 453 35,000  Level Minneapolis Center
Thu 07:53:12 PM 40.1181 -95.0878 91° East 438 504 35,000  Level Minneapolis Center
Thu 07:54:14 PM 40.1900 -94.9872 47° Northeast 466 536 35,000  Level Minneapolis Center
Thu 07:55:16 PM 40.3164 -94.8525 39° Northeast 486 559 35,000  Level Minneapolis Center
Thu 07:56:17 PM 40.4422 -94.7200 39° Northeast 487 560 35,000  Level Minneapolis Center
Thu 07:57:19 PM 40.5469 -94.6106 38° Northeast 483 556 35,000  Level Minneapolis Center
Thu 07:58:21 PM 40.5956 -94.4753 65° Northeast 462 532 35,000  Level Minneapolis Center
Thu 07:59:22 PM 40.5722 -94.3689 106° East 406 467 35,000  Level Minneapolis Center
Thu 08:00:25 PM 40.5458 -94.1761 100° East 426 490 35,000  Level Minneapolis Center
Thu 08:01:26 PM 40.5733 -94.0136 77° East 456 525 35,000  Level Minneapolis Center
Thu 08:02:28 PM 40.5964 -93.8522 79° East 456 525 35,000  Level Minneapolis Center
Thu 08:03:30 PM 40.6231 -93.6767 79° East 444 511 35,000  Level Minneapolis Center
Thu 08:04:32 PM 40.6386 -93.5453 81° East 437 503 35,000  Level Minneapolis Center
Thu 08:05:46 PM 40.6661 -93.3831 77° East 447 514 35,000 -309 Level Minneapolis Center
Thu 08:06:48 PM 40.6994 -93.1544 79° East 454 522 34,300 -968 Descending Minneapolis Center
Thu 08:07:50 PM 40.7242 -92.9892 79° East 458 527 33,000 -1,119 Descending Minneapolis Center
Thu 08:08:46 PM 40.7411 -92.8625 80° East 446 513 32,100 -508 Descending Chicago Center
Thu 08:09:48 PM 40.7678 -92.6758 79° East 435 501 32,000 -48 Descending Chicago Center
Thu 08:10:50 PM 40.7906 -92.5128 79° East 447 514 32,000  Level Chicago Center
Thu 08:12:05 PM 40.8192 -92.3153 79° East 457 526 32,000  Level Chicago Center
Thu 08:13:07 PM 40.8422 -92.1458 80° East 468 539 32,000  Level Chicago Center
Thu 08:15:03 PM 40.8861 -91.8094 80° East 467 537 32,000  Level Minneapolis Center
Thu 08:16:13 PM 40.9136 -91.6078 80° East 469 540 32,000  Level Chicago Center
Thu 08:17:15 PM 40.9353 -91.4394 80° East 467 537 32,000  Level Chicago Center
Thu 08:18:17 PM 40.9586 -91.2636 80° East 460 529 32,000 -1,016 Level Chicago Center
Thu 08:19:19 PM 40.9792 -91.0964 81° East 461 531 29,900 -2,177 Descending Chicago Center
Thu 08:20:21 PM 41.0003 -90.9322 80° East 453 521 27,500 -2,226 Descending Chicago Center
Thu 08:21:23 PM 41.0194 -90.7761 81° East 435 501 25,300 -1,887 Descending Chicago Center
Thu 08:22:25 PM 41.0389 -90.6244 80° East 419 482 23,600 -1,500 Descending Chicago Center
Thu 08:23:27 PM 41.0569 -90.4708 81° East 419 482 22,200 -1,488 Descending Chicago Center
Thu 08:24:30 PM 41.0797 -90.2833 81° East 426 490 20,500 -1,392 Descending Chicago Center
Thu 08:25:32 PM 41.0950 -90.1458 82° East 374 430 19,300 -1,065 Descending Chicago Center
Thu 08:26:34 PM 41.1108 -90.0203 80° East 345 397 18,300 -823 Descending Chicago Center
Thu 08:27:36 PM 41.1253 -89.8911 82° East 350 403 17,600 -774 Descending Chicago Center
Thu 08:28:38 PM 41.1417 -89.7511 81° East 376 433 16,700 -1,016 Descending Chicago Center
Thu 08:29:40 PM 41.1567 -89.6153 82° East 371 427 15,500 -1,065 Descending Chicago Center
Thu 08:30:42 PM 41.1667 -89.4908 84° East 341 392 14,500 -919 Descending Chicago Center
Thu 08:31:44 PM 41.1750 -89.3697 85° East 331 381 13,600 -1,113 Descending Chicago Center
Thu 08:32:46 PM 41.1858 -89.2211 84° East 337 388 12,200 -1,355 Descending Chicago Center
Thu 08:33:48 PM 41.1931 -89.0986 85° East 322 371 10,800 -1,065 Descending Chicago Center
Thu 08:34:50 PM 41.2011 -88.9811 85° East 321 369 10,000 -823 Descending Chicago Center
Thu 08:35:52 PM 41.2206 -88.8769 76° East 306 352 9,100 -871 Descending Chicago Center
Thu 08:36:54 PM 41.2642 -88.7878 57° Northeast 292 336 8,200 -816 Descending Chicago Center
Thu 08:37:57 PM 41.3053 -88.6944 60° Northeast 294 338 7,400 -816 Descending Chicago Center
Thu 08:38:59 PM 41.3472 -88.6017 59° Northeast 295 339 6,500 -677 Descending Chicago Center
Thu 08:40:01 PM 41.3964 -88.4928 59° Northeast 289 333 6,000 -242 Descending Chicago Center
Thu 08:41:03 PM 41.4356 -88.4042 59° Northeast 282 325 6,000  Level Chicago Center
Thu 08:42:05 PM 41.4744 -88.3167 59° Northeast 277 319 6,000 -97 Level Chicago Center
Thu 08:43:07 PM 41.4919 -88.2206 76° East 281 323 5,800 -629 Descending Chicago Center
Thu 08:44:09 PM 41.5003 -88.1225 83° East 268 308 4,700 -871 Descending Chicago Center
Thu 08:45:11 PM 41.5217 -88.0394 71° East 254 292 4,000 -339 Descending Chicago Center
Thu 08:46:13 PM 41.5822 -88.0050 23° Northeast 246 283 4,000  Level Chicago Center
Thu 08:47:15 PM 41.6453 -87.9314 41° Northeast 250 288 4,000 -435 Level Chicago Center
Thu 08:48:17 PM 41.6903 -87.8711 45° Northeast 241 277 3,100 -1,032 Descending Chicago Center
Thu 08:48:48 PM 41.7167 -87.8333 47° Northeast 222 255 2,400 -847 Descending Chicago TRACON
Thu 08:49:42 PM 41.7500 -87.8000 37° Northeast 162 186 1,900 -789 Descending Chicago TRACON
Thu 08:50:42 PM 41.7667 -87.7667 56° Northeast 117 135 900 -1,000 Descending Chicago TRACON

Login

Don't have an account? Register now (free) for customized features, flight alerts, and more!